createdAt,value
2017-07-19T00:02:25.095Z,23.30
2017-07-19T00:07:23.366Z,23.30
2017-07-19T00:09:51.641Z,23.30
2017-07-19T00:12:19.985Z,23.30
2017-07-19T00:17:17.771Z,23.30
2017-07-19T00:19:47.054Z,23.10
2017-07-19T00:22:16.095Z,23.10
2017-07-19T00:24:44.767Z,23.10
2017-07-19T00:27:14.614Z,23.10
2017-07-19T00:29:42.899Z,23.00
2017-07-19T00:32:11.183Z,23.00
2017-07-19T00:34:39.542Z,23.00
2017-07-19T00:37:09.333Z,23.00
2017-07-19T00:42:08.099Z,23.00
2017-07-19T00:44:37.886Z,22.90
2017-07-19T00:47:06.163Z,22.90
2017-07-19T00:49:35.256Z,22.80
2017-07-19T00:54:33.443Z,22.80
2017-07-19T00:57:01.832Z,22.80
2017-07-19T00:59:30.130Z,22.80
2017-07-19T01:04:28.737Z,22.70
2017-07-19T01:06:57.020Z,22.70
2017-07-19T01:09:25.329Z,22.60
2017-07-19T01:11:54.490Z,22.60
2017-07-19T01:14:22.775Z,22.60
2017-07-19T01:16:51.826Z,22.50
2017-07-19T01:19:21.283Z,22.60
2017-07-19T01:21:49.559Z,22.50
2017-07-19T01:24:17.838Z,22.60
2017-07-19T01:26:46.935Z,22.50
2017-07-19T01:29:15.985Z,22.50
2017-07-19T01:31:44.271Z,22.50
2017-07-19T01:36:43.318Z,22.40
2017-07-19T01:39:11.600Z,22.50
2017-07-19T01:41:39.934Z,22.40
2017-07-19T01:44:08.214Z,22.40
2017-07-19T01:46:36.492Z,22.30
2017-07-19T01:49:06.330Z,22.30
2017-07-19T01:51:34.636Z,22.30
2017-07-19T01:54:02.911Z,22.20
2017-07-19T01:56:31.253Z,22.20
2017-07-19T02:01:29.044Z,22.20
2017-07-19T02:06:27.691Z,22.20
2017-07-19T02:08:55.979Z,22.20
2017-07-19T02:11:25.131Z,22.10
2017-07-19T02:13:54.194Z,22.10
2017-07-19T02:18:53.606Z,22.10
2017-07-19T02:21:21.910Z,22.00
2017-07-19T02:23:50.198Z,22.00
2017-07-19T02:26:19.662Z,22.00
2017-07-19T02:28:47.933Z,21.90
2017-07-19T02:31:16.216Z,21.90
2017-07-19T02:33:44.555Z,21.90
2017-07-19T02:36:12.847Z,21.90
2017-07-19T02:38:41.127Z,21.90
2017-07-19T02:41:10.952Z,21.80
2017-07-19T02:46:09.505Z,21.90
2017-07-19T02:48:38.599Z,21.90
2017-07-19T02:53:36.778Z,21.90
2017-07-19T02:56:05.108Z,21.90
2017-07-19T02:58:33.379Z,21.80
2017-07-19T03:01:03.160Z,21.90
2017-07-19T03:06:01.387Z,21.80
2017-07-19T03:08:29.663Z,21.80
2017-07-19T03:10:58.010Z,21.80
2017-07-19T03:13:26.298Z,21.70
2017-07-19T03:15:54.602Z,21.80
2017-07-19T03:18:24.480Z,21.70
2017-07-19T03:20:52.762Z,21.80
2017-07-19T03:23:21.078Z,21.70
2017-07-19T03:25:49.430Z,21.80
2017-07-19T03:28:19.211Z,21.80
2017-07-19T03:35:46.563Z,21.80
2017-07-19T03:38:14.878Z,21.90
2017-07-19T03:43:13.113Z,21.80
2017-07-19T03:45:41.419Z,21.80
2017-07-19T03:48:11.380Z,21.80
2017-07-19T03:50:39.667Z,21.80
2017-07-19T03:53:07.974Z,21.80
2017-07-19T03:55:36.287Z,21.70
2017-07-19T04:00:34.492Z,21.70
2017-07-19T04:03:02.803Z,21.70
2017-07-19T04:08:01.011Z,21.70
2017-07-19T04:10:29.399Z,21.70
2017-07-19T04:12:57.693Z,21.70
2017-07-19T04:20:25.151Z,21.70
2017-07-19T04:22:53.480Z,21.70
2017-07-19T04:25:22.942Z,21.70
2017-07-19T04:30:21.170Z,21.80
2017-07-19T04:32:49.478Z,21.80
2017-07-19T04:35:17.757Z,21.80
2017-07-19T04:37:46.058Z,21.80
2017-07-19T04:40:14.383Z,21.80
2017-07-19T04:42:42.675Z,21.90
2017-07-19T04:45:12.514Z,21.90
2017-07-19T04:47:40.831Z,22.00
2017-07-19T04:52:39.042Z,22.00
2017-07-19T04:55:07.350Z,22.10
2017-07-19T04:57:36.390Z,22.10
2017-07-19T05:00:04.703Z,22.20
2017-07-19T05:02:33.015Z,22.20
2017-07-19T05:05:01.311Z,22.20
2017-07-19T05:07:30.765Z,22.20
2017-07-19T05:09:59.090Z,22.20
2017-07-19T05:12:27.384Z,22.30
2017-07-19T05:14:55.717Z,22.30
2017-07-19T05:17:24.094Z,22.30
2017-07-19T05:19:52.415Z,22.30
2017-07-19T05:22:21.871Z,22.30
2017-07-19T05:24:50.183Z,22.40
2017-07-19T05:27:18.478Z,22.40
2017-07-19T05:29:47.196Z,22.50
2017-07-19T05:32:16.655Z,22.60
2017-07-19T05:34:44.931Z,22.60
2017-07-19T05:39:42.776Z,22.70
2017-07-19T05:44:40.660Z,22.80
2017-07-19T05:47:08.974Z,22.90
2017-07-19T05:49:37.262Z,22.90
2017-07-19T05:52:05.611Z,22.90
2017-07-19T05:54:33.920Z,23.00
2017-07-19T05:57:02.203Z,23.00
2017-07-19T05:59:32.333Z,23.10
2017-07-19T06:02:01.759Z,23.20
2017-07-19T06:04:30.039Z,23.20
2017-07-19T06:06:58.363Z,23.30
2017-07-19T06:09:26.649Z,23.40
2017-07-19T06:11:56.438Z,23.50
2017-07-19T06:14:25.187Z,23.60
2017-07-19T06:16:54.971Z,23.70
2017-07-19T06:19:23.302Z,23.80
2017-07-19T06:21:52.410Z,23.90
2017-07-19T06:24:20.687Z,24.00
2017-07-19T06:26:48.965Z,24.10
2017-07-19T06:29:18.425Z,24.20
2017-07-19T06:31:46.708Z,24.40
2017-07-19T06:34:15.001Z,24.50
2017-07-19T06:36:44.874Z,24.70
2017-07-19T06:39:13.943Z,24.80
2017-07-19T06:41:43.760Z,25.00
2017-07-19T06:44:12.137Z,25.10
2017-07-19T06:46:41.567Z,25.30
2017-07-19T06:49:10.262Z,25.50
2017-07-19T06:51:38.646Z,25.70
2017-07-19T06:54:08.478Z,25.90
2017-07-19T06:56:36.794Z,26.20
2017-07-19T06:59:05.938Z,26.40
2017-07-19T07:04:04.135Z,26.90
2017-07-19T07:06:32.487Z,27.10
2017-07-19T07:09:00.768Z,27.30
2017-07-19T07:11:29.052Z,27.40
2017-07-19T07:13:57.402Z,27.60
2017-07-19T07:16:26.820Z,27.70
2017-07-19T07:18:55.859Z,27.80
2017-07-19T07:21:24.982Z,27.90
2017-07-19T07:23:53.287Z,27.90
2017-07-19T07:26:21.562Z,27.90
2017-07-19T07:28:49.912Z,28.00
2017-07-19T07:31:18.178Z,27.90
2017-07-19T07:33:46.485Z,27.90
2017-07-19T07:36:15.579Z,28.00
2017-07-19T07:41:13.791Z,28.10
2017-07-19T07:43:42.127Z,28.20
2017-07-19T07:46:10.428Z,28.20
2017-07-19T07:51:08.309Z,28.30
2017-07-19T07:53:36.624Z,28.30
2017-07-19T07:56:04.895Z,28.40
2017-07-19T07:58:33.228Z,28.50
2017-07-19T08:01:01.503Z,28.60
2017-07-19T08:03:29.783Z,28.70
2017-07-19T08:05:59.404Z,28.80
2017-07-19T08:08:27.678Z,28.80
2017-07-19T08:10:55.958Z,29.00
2017-07-19T08:13:24.307Z,29.10
2017-07-19T08:18:22.503Z,29.40
2017-07-19T08:23:21.851Z,29.60
2017-07-19T08:25:50.131Z,29.60
2017-07-19T08:28:19.958Z,29.70
2017-07-19T08:30:48.232Z,29.80
2017-07-19T08:33:16.515Z,29.90
2017-07-19T08:35:46.359Z,29.90
2017-07-19T08:38:14.635Z,29.90
2017-07-19T08:40:42.936Z,29.80
2017-07-19T08:43:11.301Z,29.90
2017-07-19T08:45:39.573Z,30.00
2017-07-19T08:48:07.882Z,30.00
2017-07-19T08:50:37.352Z,30.10
2017-07-19T08:53:05.641Z,30.20
2017-07-19T08:55:33.906Z,30.30
2017-07-19T08:58:02.343Z,30.40
2017-07-19T09:00:30.626Z,30.70
2017-07-19T09:02:59.667Z,30.80
2017-07-19T09:05:28.799Z,30.90
2017-07-19T09:07:57.850Z,31.00
2017-07-19T09:10:26.155Z,31.20
2017-07-19T09:12:56.006Z,31.50
2017-07-19T09:15:24.294Z,31.60
2017-07-19T09:17:52.575Z,31.60
2017-07-19T09:20:22.506Z,31.70
2017-07-19T09:22:50.787Z,31.80
2017-07-19T09:25:19.071Z,31.90
2017-07-19T09:27:47.398Z,31.90
2017-07-19T09:30:15.678Z,32.00
2017-07-19T09:32:45.467Z,32.10
2017-07-19T09:37:43.706Z,32.10
2017-07-19T09:40:12.001Z,32.10
2017-07-19T09:42:46.083Z,32.00
2017-07-19T09:45:14.360Z,32.10
2017-07-19T09:47:43.398Z,32.20
2017-07-19T09:50:11.733Z,32.30
2017-07-19T09:52:40.028Z,32.30
2017-07-19T09:55:09.819Z,32.30
2017-07-19T09:57:38.197Z,32.40
2017-07-19T10:00:07.199Z,32.50
2017-07-19T10:02:36.266Z,32.60
2017-07-19T10:05:04.599Z,32.80
2017-07-19T10:07:32.889Z,32.90
2017-07-19T10:10:01.154Z,33.10
2017-07-19T10:12:29.486Z,33.40
2017-07-19T10:14:59.268Z,33.60
2017-07-19T10:17:27.542Z,33.70
2017-07-19T10:19:55.872Z,33.70
2017-07-19T10:22:24.919Z,33.80
2017-07-19T10:24:53.972Z,33.80
2017-07-19T10:27:22.310Z,33.90
2017-07-19T10:29:51.360Z,33.90
2017-07-19T10:32:19.632Z,34.10
2017-07-19T10:34:47.962Z,34.20
2017-07-19T10:37:16.238Z,34.30
2017-07-19T10:39:44.514Z,34.30
2017-07-19T10:42:12.848Z,34.40
2017-07-19T10:44:41.891Z,34.40
2017-07-19T10:47:10.190Z,34.50
2017-07-19T10:49:38.560Z,34.60
2017-07-19T10:52:06.864Z,34.70
2017-07-19T10:54:35.135Z,34.70
2017-07-19T10:57:03.466Z,34.70
2017-07-19T11:02:01.642Z,34.40
2017-07-19T11:04:29.962Z,34.40
2017-07-19T11:06:59.047Z,34.40
2017-07-19T11:09:27.339Z,34.50
2017-07-19T11:16:55.371Z,34.80
2017-07-19T11:19:23.715Z,35.00
2017-07-19T11:24:21.921Z,34.90
2017-07-19T11:26:50.247Z,34.90
2017-07-19T11:29:18.533Z,35.00
2017-07-19T11:34:16.787Z,35.00
2017-07-19T11:36:45.085Z,35.00
2017-07-19T11:41:43.366Z,35.10
2017-07-19T11:44:11.666Z,35.10
2017-07-19T11:46:40.751Z,35.20
2017-07-19T11:49:09.114Z,35.20
2017-07-19T11:51:37.406Z,35.20
2017-07-19T11:54:07.191Z,35.30
2017-07-19T11:56:36.200Z,35.10
2017-07-19T11:59:05.626Z,35.00
2017-07-19T12:01:33.898Z,35.00
2017-07-19T12:06:31.735Z,35.00
2017-07-19T12:09:00.006Z,35.10
2017-07-19T12:13:58.602Z,35.20
2017-07-19T12:16:26.895Z,35.30
2017-07-19T12:18:55.251Z,35.50
2017-07-19T12:21:23.526Z,35.60
2017-07-19T12:26:21.667Z,35.60
2017-07-19T12:28:50.707Z,35.50
2017-07-19T12:31:20.591Z,35.60
2017-07-19T12:33:48.949Z,35.50
2017-07-19T12:36:17.218Z,35.50
2017-07-19T12:38:45.491Z,35.60
2017-07-19T12:41:13.817Z,35.70
2017-07-19T12:43:43.594Z,35.70
2017-07-19T12:46:11.875Z,35.60
2017-07-19T12:48:40.210Z,35.50
2017-07-19T12:51:09.635Z,35.40
2017-07-19T12:53:37.927Z,35.20
2017-07-19T12:56:06.856Z,35.20
2017-07-19T12:58:36.771Z,35.30
2017-07-19T13:01:05.059Z,35.40
2017-07-19T13:03:33.387Z,35.50
2017-07-19T13:06:03.163Z,35.50
2017-07-19T13:08:31.435Z,35.60
2017-07-19T13:13:29.676Z,35.70
2017-07-19T13:15:58.714Z,35.70
2017-07-19T13:18:27.039Z,35.70
2017-07-19T13:20:55.310Z,35.60
2017-07-19T13:23:23.589Z,35.60
2017-07-19T13:25:51.922Z,35.50
2017-07-19T13:28:21.716Z,35.30
2017-07-19T13:30:49.987Z,35.20
2017-07-19T13:33:18.347Z,35.00
2017-07-19T13:35:46.620Z,34.70
2017-07-19T13:38:16.034Z,34.40
2017-07-19T13:40:44.404Z,34.00
2017-07-19T13:43:12.679Z,33.40
2017-07-19T13:45:40.991Z,32.90
2017-07-19T13:48:09.334Z,32.30
2017-07-19T13:50:39.167Z,31.70
2017-07-19T13:53:07.474Z,31.00
2017-07-19T13:55:36.582Z,30.40
2017-07-19T13:58:04.878Z,29.60
2017-07-19T14:03:03.118Z,28.10
2017-07-19T14:05:31.398Z,27.50
2017-07-19T14:07:59.681Z,27.10
2017-07-19T14:10:28.020Z,26.70
2017-07-19T14:12:56.308Z,26.20
2017-07-19T14:17:54.178Z,25.50
2017-07-19T14:22:52.357Z,25.00
2017-07-19T14:27:50.963Z,24.80
2017-07-19T14:30:19.242Z,24.60
2017-07-19T14:35:17.483Z,24.40
2017-07-19T14:37:46.526Z,24.30
2017-07-19T14:42:44.750Z,23.80
2017-07-19T14:45:13.044Z,23.60
2017-07-19T14:50:10.985Z,23.30
2017-07-19T14:52:39.298Z,23.00
2017-07-19T14:55:07.698Z,22.80
2017-07-19T14:57:36.416Z,22.60
2017-07-19T15:00:05.926Z,22.40
2017-07-19T15:02:34.258Z,22.20
2017-07-19T15:05:04.051Z,22.10
2017-07-19T15:10:02.189Z,22.10
2017-07-19T15:12:30.867Z,22.10
2017-07-19T15:14:59.152Z,22.10
2017-07-19T15:17:28.323Z,22.10
2017-07-19T15:22:26.130Z,22.00
2017-07-19T15:27:24.763Z,21.70
2017-07-19T15:29:53.074Z,21.70
2017-07-19T15:32:21.447Z,21.60
2017-07-19T15:34:49.727Z,21.40
2017-07-19T15:37:17.999Z,21.40
2017-07-19T15:39:47.531Z,21.30
2017-07-19T15:42:15.858Z,21.30
2017-07-19T15:47:14.235Z,21.30
2017-07-19T15:49:42.535Z,21.30
2017-07-19T15:52:10.828Z,21.30
2017-07-19T15:54:39.925Z,21.40
2017-07-19T15:57:08.995Z,21.50
2017-07-19T16:02:07.664Z,21.60
2017-07-19T16:04:36.342Z,21.70
2017-07-19T16:09:35.005Z,21.80
2017-07-19T16:12:04.798Z,21.90
2017-07-19T16:14:33.117Z,22.00
2017-07-19T16:17:01.451Z,22.10
2017-07-19T16:19:29.770Z,22.20
2017-07-19T16:21:58.067Z,22.30
2017-07-19T16:24:26.414Z,22.40
2017-07-19T16:26:56.215Z,22.40
2017-07-19T16:29:26.135Z,22.50
2017-07-19T16:31:54.424Z,22.60
2017-07-19T16:39:21.862Z,22.90
2017-07-19T16:41:50.137Z,23.00
2017-07-19T16:46:48.122Z,23.10
2017-07-19T16:49:16.407Z,23.20
2017-07-19T16:54:14.673Z,23.30
2017-07-19T16:56:42.984Z,23.40
2017-07-19T16:59:12.816Z,23.50
2017-07-19T17:04:11.385Z,23.40
2017-07-19T17:09:10.079Z,23.40
2017-07-19T17:11:38.372Z,23.50
2017-07-19T17:14:07.482Z,23.50
2017-07-19T17:16:36.550Z,23.50
2017-07-19T17:19:04.831Z,23.60
2017-07-19T17:21:33.948Z,23.70
2017-07-19T17:24:03.002Z,23.70
2017-07-19T17:26:32.045Z,23.80
2017-07-19T17:29:00.663Z,23.80
2017-07-19T17:33:58.451Z,23.90
2017-07-19T17:36:26.788Z,23.90
2017-07-19T17:38:55.117Z,23.90
2017-07-19T17:41:23.458Z,23.90
2017-07-19T17:43:51.774Z,23.90
2017-07-19T17:46:20.055Z,23.90
2017-07-19T17:48:49.472Z,23.90
2017-07-19T17:51:17.850Z,24.00
2017-07-19T17:53:46.127Z,24.10
2017-07-19T18:01:13.899Z,24.40
2017-07-19T18:03:42.197Z,24.40
2017-07-19T18:06:12.039Z,24.50
2017-07-19T18:11:10.297Z,24.60
2017-07-19T18:13:38.640Z,24.60
2017-07-19T18:16:06.948Z,24.60
2017-07-19T18:18:35.223Z,24.60
2017-07-19T18:21:03.566Z,24.60
2017-07-19T18:23:32.639Z,24.60
2017-07-19T18:26:00.923Z,24.60
2017-07-19T18:28:29.273Z,24.60
2017-07-19T18:30:57.568Z,24.70
2017-07-19T18:35:56.190Z,24.70
2017-07-19T18:38:25.239Z,24.70
2017-07-19T18:40:54.282Z,24.70
2017-07-19T18:45:52.952Z,24.80
2017-07-19T18:48:21.622Z,24.70
2017-07-19T18:50:49.950Z,24.70
2017-07-19T18:53:18.234Z,24.60
2017-07-19T18:55:47.651Z,24.60
2017-07-19T18:58:16.368Z,24.60
2017-07-19T19:00:46.155Z,24.40
2017-07-19T19:03:14.453Z,24.50
2017-07-19T19:05:42.792Z,24.40
2017-07-19T19:08:11.104Z,24.40
2017-07-19T19:10:39.417Z,24.30
2017-07-19T19:13:07.763Z,24.30
2017-07-19T19:15:36.092Z,24.30
2017-07-19T19:18:04.376Z,24.30
2017-07-19T19:20:34.271Z,24.20
2017-07-19T19:23:03.333Z,24.20
2017-07-19T19:25:31.607Z,24.30
2017-07-19T19:28:00.723Z,24.20
2017-07-19T19:30:29.770Z,24.20
2017-07-19T19:35:27.978Z,24.10
2017-07-19T19:37:56.264Z,24.10
2017-07-19T19:40:24.548Z,24.10
2017-07-19T19:45:22.379Z,23.90
2017-07-19T19:47:50.659Z,24.00
2017-07-19T19:50:18.999Z,23.90
2017-07-19T19:52:47.286Z,23.80
2017-07-19T19:55:15.584Z,23.80
2017-07-19T19:57:44.214Z,23.80
2017-07-19T20:00:14.024Z,23.80
2017-07-19T20:05:12.645Z,23.70
2017-07-19T20:07:42.443Z,23.60
2017-07-19T20:12:41.884Z,23.60
2017-07-19T20:15:10.193Z,23.60
2017-07-19T20:17:40.000Z,23.50
2017-07-19T20:20:08.359Z,23.50
2017-07-19T20:22:36.659Z,23.50
2017-07-19T20:25:04.953Z,23.50
2017-07-19T20:27:33.323Z,23.50
2017-07-19T20:30:02.374Z,23.50
2017-07-19T20:32:30.658Z,23.50
2017-07-19T20:34:59.003Z,23.40
2017-07-19T20:37:27.287Z,23.50
2017-07-19T20:39:55.559Z,23.50
2017-07-19T20:44:54.159Z,23.50
2017-07-19T20:47:23.253Z,23.60
2017-07-19T20:49:52.360Z,23.60
2017-07-19T20:52:21.411Z,23.50
2017-07-19T20:54:49.691Z,23.60
2017-07-19T20:57:18.007Z,23.60
2017-07-19T20:59:47.123Z,23.50
2017-07-19T21:02:15.807Z,23.50
2017-07-19T21:04:44.147Z,23.50
2017-07-19T21:07:12.426Z,23.40
2017-07-19T21:09:41.094Z,23.40
2017-07-19T21:12:10.628Z,23.40
2017-07-19T21:17:08.921Z,23.30
2017-07-19T21:19:37.346Z,23.30
2017-07-19T21:22:05.683Z,23.30
2017-07-19T21:27:04.024Z,23.40
2017-07-19T21:29:33.113Z,23.30
2017-07-19T21:34:31.446Z,23.30
2017-07-19T21:36:59.773Z,23.20
2017-07-19T21:39:28.088Z,23.10
2017-07-19T21:41:56.465Z,23.10
2017-07-19T21:44:25.565Z,23.10
2017-07-19T21:46:53.884Z,23.20
2017-07-19T21:49:22.677Z,23.20
2017-07-19T21:51:50.999Z,23.20
2017-07-19T21:54:20.456Z,23.30
2017-07-19T21:56:48.829Z,23.20
2017-07-19T21:59:17.144Z,23.30
2017-07-19T22:01:45.471Z,23.30
2017-07-19T22:04:15.350Z,23.30
2017-07-19T22:06:43.673Z,23.30
2017-07-19T22:09:12.784Z,23.30
2017-07-19T22:11:41.192Z,23.30
2017-07-19T22:14:11.024Z,23.20
2017-07-19T22:16:39.373Z,23.20
2017-07-19T22:19:07.776Z,23.20
2017-07-19T22:24:05.684Z,23.20
2017-07-19T22:26:34.049Z,23.20
2017-07-19T22:29:02.369Z,23.20
2017-07-19T22:31:30.686Z,23.30
2017-07-19T22:34:00.192Z,23.20
2017-07-19T22:36:28.518Z,23.10
2017-07-19T22:38:56.851Z,23.20
2017-07-19T22:43:55.203Z,23.40
2017-07-19T22:48:53.547Z,23.50
2017-07-19T22:51:22.629Z,23.60
2017-07-19T22:53:50.952Z,23.70
2017-07-19T22:56:19.344Z,23.70
2017-07-19T22:58:47.664Z,23.60
2017-07-19T23:01:17.122Z,23.60
2017-07-19T23:03:45.480Z,23.60
2017-07-19T23:06:13.797Z,23.60
2017-07-19T23:08:42.132Z,23.60
2017-07-19T23:11:11.714Z,23.60
2017-07-19T23:16:10.021Z,23.60
2017-07-19T23:18:38.400Z,23.60
2017-07-19T23:21:06.738Z,23.70
2017-07-19T23:23:35.066Z,23.60
2017-07-19T23:26:03.453Z,23.60
2017-07-19T23:31:01.325Z,23.70
2017-07-19T23:33:29.704Z,23.60
2017-07-19T23:35:58.020Z,23.70
2017-07-19T23:38:26.743Z,23.70
2017-07-19T23:40:55.154Z,23.70
2017-07-19T23:43:24.990Z,23.70
2017-07-19T23:45:53.317Z,23.70
2017-07-19T23:48:21.678Z,23.70
2017-07-19T23:50:49.996Z,23.70
2017-07-19T23:53:18.303Z,23.70
2017-07-19T23:55:46.668Z,23.70
2017-07-19T23:58:16.118Z,23.70
